Terminal Aerodrome Forecast
Issued by NWS

Home | Current Version | Previous Version | Text Only | Print | Product List | Glossary On
Versions: 1 2 3 4 5 6 7 8 9 10 11 12 13 14 15 16 17 18 19 20 21 22 23 24 25 26 27 28 29 30 31 32 33 34 35 36 37 38 39 40 41 42 43 44 45 46
059
FTAK31 PANC 251726
TAFAIL
TAF
PAIL 251726Z 2518/2618 VRB06KT P6SM -SHRA FEW030 OVC040
     FM260200 10010G16KT P6SM -SHRA BKN035 BKN100
     FM260900 07006KT P6SM VCSH BKN050=

USA.gov is the U.S. government's official web portal to all federal, state and local government web resources and services.